Ozgur Aksoy — 9HA2587 — position and weather

sailwx.info

Track history (hours):
 
Tides and Currents Weather Stations Pressure Air Temp Water Temp Dewpoint Dewpoint Depression Visibility Wind Speed Wind Dir Waves Ship Positions

Ozgur Aksoy

Last reported at 2016-Aug-27 16:33 UTC. Time now 2016-Aug-27 16:54 UTC.
Position N 60°17' E 027°53'.

Length 196 m; draft 6.6 m.

Type: Cargo ship. MMSI: 248950000.

Date/timePositionNaut miles runAvg speedWind from/ knotsBaromVisibWave heightAir tempDewpointWater temp
2016-Aug-27 16:33N 60°17' E 027°53'6 5.6
2016-Aug-27 15:33N 60°21' E 028°00'2 1.5
2016-Aug-27 14:32N 60°20' E 028°02'2 1.7
2016-Aug-27 13:34N 60°20' E 028°05'2 1.7
2016-Aug-27 12:34N 60°21' E 028°04'1 0.5
2016-Aug-27 10:27N 60°20' E 028°03'0 0.1
2016-Aug-27 09:27N 60°20' E 028°03'0 0.1
2016-Aug-27 08:30N 60°20' E 028°03'1 0.3
2016-Aug-27 06:28N 60°21' E 028°03'16 8.3
2016-Aug-27 04:34N 60°09' E 027°41'1414.1
2016-Aug-27 03:33N 60°02' E 027°17'1313.2
2016-Aug-27 02:33N 59°59' E 026°51'1413.9
2016-Aug-27 01:33N 59°57' E 026°24'1414.2
2016-Aug-27 00:32N 59°53' E 025°56'1414.2
2016-Aug-26 23:32N 59°51' E 025°28'1414.0
2016-Aug-26 22:33N 59°47' E 025°02'1414.0
2016-Aug-26 21:33N 59°44' E 024°35'1414.0
2016-Aug-26 20:33N 59°41' E 024°08'1413.8
2016-Aug-26 19:33N 59°36' E 023°42'1414.3
2016-Aug-26 18:34N 59°32' E 023°16'1514.0
2016-Aug-26 17:30N 59°27' E 022°48'29313.9
2016-Aug-25 20:22N 55°56' E 016°26'1113.4
2016-Aug-25 19:33N 55°51' E 016°09'1313.4
2016-Aug-25 18:33N 55°44' E 015°49'1413.9
2016-Aug-25 17:33N 55°38' E 015°27'1413.8
2016-Aug-25 16:34N 55°32' E 015°05'1413.6
2016-Aug-25 15:33N 55°25' E 014°44'1313.1
2016-Aug-25 14:34N 55°16' E 014°28'1212.4
2016-Aug-25 13:34N 55°09' E 014°09'1313.2
2016-Aug-25 12:34N 55°11' E 013°46'1312.7
2016-Aug-25 11:33N 55°12' E 013°24'1313.1
2016-Aug-25 10:34N 55°13' E 013°01'1313.1
2016-Aug-25 09:33N 55°17' E 012°39'1211.7
2016-Aug-25 08:34N 55°29' E 012°42'9 9.2
2016-Aug-25 07:34N 55°38' E 012°42'1212.0
2016-Aug-25 06:33N 55°50' E 012°42'2110.3
2016-Aug-25 04:33N 56°09' E 012°26'1313.2
2016-Aug-25 03:34N 56°16' E 012°07'1313.1
2016-Aug-25 02:34N 56°29' E 011°58'1313.2
2016-Aug-25 01:33N 56°41' E 011°53'1313.2
2016-Aug-25 00:33N 56°54' E 011°45'1313.1
2016-Aug-24 23:33N 57°06' E 011°37'1313.0
2016-Aug-24 22:34N 57°19' E 011°30'1312.8
2016-Aug-24 21:34N 57°30' E 011°20'1312.9
2016-Aug-24 20:33N 57°39' E 011°02'1313.1
2016-Aug-24 19:34N 57°47' E 010°42'1212.2
2016-Aug-24 18:33N 57°49' E 010°19'1313.5
2016-Aug-24 17:33N 57°50' E 009°54'1413.7
2016-Aug-24 16:34N 57°46' E 009°29'1414.0
2016-Aug-24 15:33N 57°40' E 009°06'1514.2
2016-Aug-24 14:31N 57°32' E 008°44'1414.1
2016-Aug-24 13:30N 57°24' E 008°21'1513.7
2016-Aug-24 12:23N 57°12' E 008°03'1213.9
2016-Aug-24 11:30N 57°01' E 007°52'1714.1
2016-Aug-24 10:15N 56°46' E 007°38'4414.1
2016-Aug-24 07:10N 56°08' E 006°58'914.2
2016-Aug-24 06:31N 55°60' E 006°51'2814.0
2016-Aug-24 04:33N 55°33' E 006°41'1414.1
2016-Aug-24 03:33N 55°19' E 006°37'1313.4
2016-Aug-24 02:33N 55°06' E 006°44'1313.3
2016-Aug-24 01:34N 54°54' E 006°54'1313.0
2016-Aug-24 00:34N 54°43' E 007°05'1313.1
2016-Aug-23 23:33N 54°31' E 007°15'1313.0
2016-Aug-23 22:33N 54°19' E 007°24'1313.1
2016-Aug-23 21:33N 54°10' E 007°41'1514.6
2016-Aug-23 20:33N 54°02' E 008°01'1211.6
2016-Aug-23 19:34N 53°60' E 008°21'1514.9
2016-Aug-23 18:33N 53°53' E 008°43'1313.1
2016-Aug-23 17:33N 53°53' E 009°05'1010.0
2016-Aug-23 16:33N 53°50' E 009°21'1010.4
2016-Aug-23 15:33N 53°41' E 009°30'10 9.7
2016-Aug-23 14:33N 53°34' E 009°42'8 8.4
2016-Aug-23 13:33N 53°32' E 009°56'1 1.3
2016-Aug-23 12:34N 53°31' E 009°57'0 0.0
2016-Aug-23 11:34N 53°31' E 009°57'0 0.0
2016-Aug-23 10:34N 53°31' E 009°57'0 0.0
2016-Aug-23 09:31N 53°31' E 009°57'0 0.0
2016-Aug-23 08:34N 53°31' E 009°57'0 0.0
2016-Aug-23 07:34N 53°31' E 009°57'0 0.0
2016-Aug-23 06:33N 53°31' E 009°57'0 0.0
2016-Aug-23 05:33N 53°31' E 009°57'0 0.0
2016-Aug-23 04:30N 53°31' E 009°57'0 0.0
2016-Aug-23 03:33N 53°31' E 009°57'0 0.0
2016-Aug-23 02:34N 53°31' E 009°57'0 0.0
2016-Aug-23 01:34N 53°31' E 009°57'0 0.0
2016-Aug-23 00:31N 53°31' E 009°57'0 0.0
2016-Aug-22 23:34N 53°31' E 009°57'1 0.8
2016-Aug-22 22:34N 53°32' E 009°58'0 0.0
2016-Aug-22 21:33N 53°32' E 009°58'0 0.0
2016-Aug-22 20:33N 53°32' E 009°58'0 0.0
2016-Aug-22 19:33N 53°32' E 009°58'0 0.0
2016-Aug-22 18:33N 53°32' E 009°58'0 0.0
2016-Aug-22 17:33N 53°32' E 009°58'1 1.3
2016-Aug-22 16:34N 53°32' E 009°56'1 1.2
2016-Aug-22 15:31N 53°31' E 009°57'0 0.0
2016-Aug-22 14:31N 53°31' E 009°57'0 0.0
2016-Aug-22 13:31N 53°31' E 009°57'0 0.0
2016-Aug-22 12:31N 53°31' E 009°57'0 0.0
2016-Aug-22 11:31N 53°31' E 009°57'0 0.0
2016-Aug-22 10:31N 53°31' E 009°57'0 0.0
2016-Aug-22 09:31N 53°31' E 009°57'0 0.0
2016-Aug-22 08:31N 53°31' E 009°57'0 0.0
2016-Aug-22 07:31N 53°31' E 009°57'0 0.0
2016-Aug-22 06:31N 53°31' E 009°57'0 0.0
2016-Aug-22 05:31N 53°31' E 009°57'0 0.0
2016-Aug-22 04:31N 53°31' E 009°57'0 0.0
2016-Aug-22 03:31N 53°31' E 009°57'0 0.0
2016-Aug-22 02:31N 53°31' E 009°57'0 0.0
2016-Aug-22 01:31N 53°31' E 009°57'0 0.0
2016-Aug-22 00:31N 53°31' E 009°57'0 0.0
2016-Aug-21 23:31N 53°31' E 009°57'0 0.0
2016-Aug-21 22:31N 53°31' E 009°57'0 0.0
2016-Aug-21 21:31N 53°31' E 009°57'0 0.0
2016-Aug-21 20:31N 53°31' E 009°57'0 0.0
2016-Aug-21 19:31N 53°31' E 009°57'0 0.0
2016-Aug-21 18:31N 53°31' E 009°57'0 0.0
2016-Aug-21 17:31N 53°31' E 009°57'0 0.0
2016-Aug-21 16:31N 53°31' E 009°57'0 0.0
2016-Aug-21 15:31N 53°31' E 009°57'0 0.0
2016-Aug-21 14:31N 53°31' E 009°57'0 0.0
2016-Aug-21 13:31N 53°31' E 009°57'0 0.0
2016-Aug-21 12:31N 53°31' E 009°57'0 0.0
2016-Aug-21 11:31N 53°31' E 009°57'0 0.0
2016-Aug-21 10:31N 53°31' E 009°57'0 0.0
2016-Aug-21 09:31N 53°31' E 009°57'0 0.0
2016-Aug-21 08:31N 53°31' E 009°57'0 0.0
2016-Aug-21 07:31N 53°31' E 009°57'0 0.0
2016-Aug-21 06:31N 53°31' E 009°57'0 0.0
2016-Aug-21 05:31N 53°31' E 009°57'0 0.0
2016-Aug-21 04:31N 53°31' E 009°57'0 0.0
2016-Aug-21 03:31N 53°31' E 009°57'0 0.0
2016-Aug-21 02:31N 53°31' E 009°57'0 0.0
2016-Aug-21 01:31N 53°31' E 009°57'0 0.0
2016-Aug-21 00:32N 53°31' E 009°57'0 0.0
2016-Aug-20 23:32N 53°31' E 009°57'0 0.0
2016-Aug-20 22:31N 53°31' E 009°57'0 0.0
2016-Aug-20 21:31N 53°31' E 009°57'0 0.0
2016-Aug-20 20:31N 53°31' E 009°57'0 0.0
2016-Aug-20 19:31N 53°31' E 009°57'0 0.0
2016-Aug-20 18:31N 53°31' E 009°57'0 0.0
2016-Aug-20 17:31N 53°31' E 009°57'0 0.0
2016-Aug-20 16:31N 53°31' E 009°57'0 0.0
2016-Aug-20 15:31N 53°31' E 009°57'0 0.0
2016-Aug-20 14:32N 53°31' E 009°57'0 0.0
2016-Aug-20 13:31N 53°31' E 009°57'0 0.0
2016-Aug-20 12:31N 53°31' E 009°57'0 0.0
2016-Aug-20 11:32N 53°31' E 009°57'0 0.0
2016-Aug-20 10:31N 53°31' E 009°57'0 0.0
2016-Aug-20 09:31N 53°31' E 009°57'0 0.0
2016-Aug-20 08:31N 53°31' E 009°57'0 0.0
2016-Aug-20 07:31N 53°31' E 009°57'0 0.0
2016-Aug-20 06:31N 53°31' E 009°57'0 0.0
2016-Aug-20 05:31N 53°31' E 009°57'0 0.0
2016-Aug-20 04:31N 53°31' E 009°57'0 0.0
2016-Aug-20 03:31N 53°31' E 009°57'0 0.0
2016-Aug-20 02:31N 53°31' E 009°57'0 0.0
2016-Aug-20 01:31N 53°31' E 009°57'0 0.0
2016-Aug-20 00:31N 53°31' E 009°57'0 0.0
2016-Aug-19 23:31N 53°31' E 009°57'0 0.0
2016-Aug-19 22:31N 53°31' E 009°57'0 0.0
2016-Aug-19 21:31N 53°31' E 009°57'0 0.0
2016-Aug-19 20:31N 53°31' E 009°57'0 0.0
2016-Aug-19 19:29N 53°31' E 009°57'0 0.0
2016-Aug-19 18:31N 53°31' E 009°57'0 0.0
2016-Aug-19 17:31N 53°31' E 009°57'0 0.0
2016-Aug-19 16:31N 53°31' E 009°57'0 0.0
2016-Aug-19 15:34N 53°31' E 009°57'0 0.0
2016-Aug-19 14:34N 53°31' E 009°57'0 0.0
2016-Aug-19 13:33N 53°31' E 009°57'0 0.1
2016-Aug-19 12:33N 53°31' E 009°56'5 4.8
2016-Aug-19 11:34N 53°33' E 009°49'1211.8
2016-Aug-19 10:34N 53°38' E 009°31'1111.1
2016-Aug-19 09:34N 53°48' E 009°22'10 9.6
2016-Aug-19 08:33N 53°53' E 009°08'9 9.3
2016-Aug-19 07:33N 53°50' E 008°53'8 8.2
2016-Aug-19 06:33N 53°55' E 008°41'9 9.2
2016-Aug-19 05:34N 53°59' E 008°27'1010.1
2016-Aug-19 04:33N 53°60' E 008°10'1110.7
2016-Aug-19 03:33N 53°59' E 007°52'1110.5
2016-Aug-19 02:33N 53°55' E 007°35'1111.3
2016-Aug-19 01:33N 53°53' E 007°16'1111.4
2016-Aug-19 00:34N 53°51' E 006°57'1211.7
2016-Aug-18 23:34N 53°48' E 006°38'1212.1
2016-Aug-18 22:33N 53°44' E 006°18'1212.6
2016-Aug-18 21:34N 53°40' E 005°58'1312.8
2016-Aug-18 20:34N 53°36' E 005°38'1312.9
2016-Aug-18 19:33N 53°33' E 005°17'1313.0
2016-Aug-18 18:31N 53°28' E 004°56'1512.7
2016-Aug-18 17:21N 53°18' E 004°37'1113.9
2016-Aug-18 16:31N 53°08' E 004°28'1313.7
2016-Aug-18 15:33N 52°56' E 004°18'1313.1
2016-Aug-18 14:33N 52°45' E 004°06'1312.9
2016-Aug-18 13:33N 52°36' E 003°51'1412.6
2016-Aug-18 12:28N 52°26' E 003°35'1111.9
2016-Aug-18 11:34N 52°19' E 003°23'1111.1
2016-Aug-18 10:32N 52°10' E 003°10'1010.4
2016-Aug-18 09:33N 52°03' E 002°59'1010.0
2016-Aug-18 08:33N 51°55' E 002°49'10 9.8
2016-Aug-18 07:33N 51°48' E 002°38'2010.2
2016-Aug-18 05:33N 51°32' E 002°16'1111.5
2016-Aug-18 04:33N 51°24' E 002°04'1212.0
2016-Aug-18 03:34N 51°15' E 001°51'1312.7
2016-Aug-18 02:33N 51°05' E 001°39'1313.4
2016-Aug-18 01:34N 50°54' E 001°27'1612.7
2016-Aug-18 00:17N 50°39' E 001°15'912.8
2016-Aug-17 23:33N 50°34' E 001°03'1312.6
2016-Aug-17 22:33N 50°28' E 000°45'1313.0
2016-Aug-17 21:34N 50°24' E 000°26'1413.7
2016-Aug-17 20:33N 50°20' E 000°05'1414.3
2016-Aug-17 19:33N 50°16' W 000°16'1414.4
2016-Aug-17 18:33N 50°12' W 000°38'1413.8
2016-Aug-17 17:33N 50°08' W 000°59'1312.6
2016-Aug-17 16:33N 50°05' W 001°18'  
Track history (hours):
 
Tides and Currents Weather Stations Pressure Air Temp Water Temp Dewpoint Dewpoint Depression Visibility Wind Speed Wind Dir Waves Ship Positions

Ozgur Aksoy

Last reported at 2016-Aug-27 16:33 UTC. Time now 2016-Aug-27 16:54 UTC.
Position N 60°17' E 027°53'.

Length 196 m; draft 6.6 m.

Type: Cargo ship. MMSI: 248950000.

Date/timePositionNaut miles runAvg speedWind from/ knotsBaromVisibWave heightAir tempDewpointWater temp
2016-Aug-27 16:33N 60°17' E 027°53'6 5.6
2016-Aug-27 15:33N 60°21' E 028°00'2 1.5
2016-Aug-27 14:32N 60°20' E 028°02'2 1.7
2016-Aug-27 13:34N 60°20' E 028°05'2 1.7
2016-Aug-27 12:34N 60°21' E 028°04'1 0.5
2016-Aug-27 10:27N 60°20' E 028°03'0 0.1
2016-Aug-27 09:27N 60°20' E 028°03'0 0.1
2016-Aug-27 08:30N 60°20' E 028°03'1 0.3
2016-Aug-27 06:28N 60°21' E 028°03'16 8.3
2016-Aug-27 04:34N 60°09' E 027°41'1414.1
2016-Aug-27 03:33N 60°02' E 027°17'1313.2
2016-Aug-27 02:33N 59°59' E 026°51'1413.9
2016-Aug-27 01:33N 59°57' E 026°24'1414.2
2016-Aug-27 00:32N 59°53' E 025°56'1414.2
2016-Aug-26 23:32N 59°51' E 025°28'1414.0
2016-Aug-26 22:33N 59°47' E 025°02'1414.0
2016-Aug-26 21:33N 59°44' E 024°35'1414.0
2016-Aug-26 20:33N 59°41' E 024°08'1413.8
2016-Aug-26 19:33N 59°36' E 023°42'1414.3
2016-Aug-26 18:34N 59°32' E 023°16'1514.0
2016-Aug-26 17:30N 59°27' E 022°48'29313.9
2016-Aug-25 20:22N 55°56' E 016°26'1113.4
2016-Aug-25 19:33N 55°51' E 016°09'1313.4
2016-Aug-25 18:33N 55°44' E 015°49'1413.9
2016-Aug-25 17:33N 55°38' E 015°27'1413.8
2016-Aug-25 16:34N 55°32' E 015°05'1413.6
2016-Aug-25 15:33N 55°25' E 014°44'1313.1
2016-Aug-25 14:34N 55°16' E 014°28'1212.4
2016-Aug-25 13:34N 55°09' E 014°09'1313.2
2016-Aug-25 12:34N 55°11' E 013°46'1312.7
2016-Aug-25 11:33N 55°12' E 013°24'1313.1
2016-Aug-25 10:34N 55°13' E 013°01'1313.1
2016-Aug-25 09:33N 55°17' E 012°39'1211.7
2016-Aug-25 08:34N 55°29' E 012°42'9 9.2
2016-Aug-25 07:34N 55°38' E 012°42'1212.0
2016-Aug-25 06:33N 55°50' E 012°42'2110.3
2016-Aug-25 04:33N 56°09' E 012°26'1313.2
2016-Aug-25 03:34N 56°16' E 012°07'1313.1
2016-Aug-25 02:34N 56°29' E 011°58'1313.2
2016-Aug-25 01:33N 56°41' E 011°53'1313.2
2016-Aug-25 00:33N 56°54' E 011°45'1313.1
2016-Aug-24 23:33N 57°06' E 011°37'1313.0
2016-Aug-24 22:34N 57°19' E 011°30'1312.8
2016-Aug-24 21:34N 57°30' E 011°20'1312.9
2016-Aug-24 20:33N 57°39' E 011°02'1313.1
2016-Aug-24 19:34N 57°47' E 010°42'1212.2
2016-Aug-24 18:33N 57°49' E 010°19'1313.5
2016-Aug-24 17:33N 57°50' E 009°54'1413.7
2016-Aug-24 16:34N 57°46' E 009°29'1414.0
2016-Aug-24 15:33N 57°40' E 009°06'1514.2
2016-Aug-24 14:31N 57°32' E 008°44'1414.1
2016-Aug-24 13:30N 57°24' E 008°21'1513.7
2016-Aug-24 12:23N 57°12' E 008°03'1213.9
2016-Aug-24 11:30N 57°01' E 007°52'1714.1
2016-Aug-24 10:15N 56°46' E 007°38'4414.1
2016-Aug-24 07:10N 56°08' E 006°58'914.2
2016-Aug-24 06:31N 55°60' E 006°51'2814.0
2016-Aug-24 04:33N 55°33' E 006°41'1414.1
2016-Aug-24 03:33N 55°19' E 006°37'1313.4
2016-Aug-24 02:33N 55°06' E 006°44'1313.3
2016-Aug-24 01:34N 54°54' E 006°54'1313.0
2016-Aug-24 00:34N 54°43' E 007°05'1313.1
2016-Aug-23 23:33N 54°31' E 007°15'1313.0
2016-Aug-23 22:33N 54°19' E 007°24'1313.1
2016-Aug-23 21:33N 54°10' E 007°41'1514.6
2016-Aug-23 20:33N 54°02' E 008°01'1211.6
2016-Aug-23 19:34N 53°60' E 008°21'1514.9
2016-Aug-23 18:33N 53°53' E 008°43'1313.1
2016-Aug-23 17:33N 53°53' E 009°05'1010.0
2016-Aug-23 16:33N 53°50' E 009°21'1010.4
2016-Aug-23 15:33N 53°41' E 009°30'10 9.7
2016-Aug-23 14:33N 53°34' E 009°42'8 8.4
2016-Aug-23 13:33N 53°32' E 009°56'1 1.3
2016-Aug-23 12:34N 53°31' E 009°57'0 0.0
2016-Aug-23 11:34N 53°31' E 009°57'0 0.0
2016-Aug-23 10:34N 53°31' E 009°57'0 0.0
2016-Aug-23 09:31N 53°31' E 009°57'0 0.0
2016-Aug-23 08:34N 53°31' E 009°57'0 0.0
2016-Aug-23 07:34N 53°31' E 009°57'0 0.0
2016-Aug-23 06:33N 53°31' E 009°57'0 0.0
2016-Aug-23 05:33N 53°31' E 009°57'0 0.0
2016-Aug-23 04:30N 53°31' E 009°57'0 0.0
2016-Aug-23 03:33N 53°31' E 009°57'0 0.0
2016-Aug-23 02:34N 53°31' E 009°57'0 0.0
2016-Aug-23 01:34N 53°31' E 009°57'0 0.0
2016-Aug-23 00:31N 53°31' E 009°57'0 0.0
2016-Aug-22 23:34N 53°31' E 009°57'1 0.8
2016-Aug-22 22:34N 53°32' E 009°58'0 0.0
2016-Aug-22 21:33N 53°32' E 009°58'0 0.0
2016-Aug-22 20:33N 53°32' E 009°58'0 0.0
2016-Aug-22 19:33N 53°32' E 009°58'0 0.0
2016-Aug-22 18:33N 53°32' E 009°58'0 0.0
2016-Aug-22 17:33N 53°32' E 009°58'1 1.3
2016-Aug-22 16:34N 53°32' E 009°56'1 1.2
2016-Aug-22 15:31N 53°31' E 009°57'0 0.0
2016-Aug-22 14:31N 53°31' E 009°57'0 0.0
2016-Aug-22 13:31N 53°31' E 009°57'0 0.0
2016-Aug-22 12:31N 53°31' E 009°57'0 0.0
2016-Aug-22 11:31N 53°31' E 009°57'0 0.0
2016-Aug-22 10:31N 53°31' E 009°57'0 0.0
2016-Aug-22 09:31N 53°31' E 009°57'0 0.0
2016-Aug-22 08:31N 53°31' E 009°57'0 0.0
2016-Aug-22 07:31N 53°31' E 009°57'0 0.0
2016-Aug-22 06:31N 53°31' E 009°57'0 0.0
2016-Aug-22 05:31N 53°31' E 009°57'0 0.0
2016-Aug-22 04:31N 53°31' E 009°57'0 0.0
2016-Aug-22 03:31N 53°31' E 009°57'0 0.0
2016-Aug-22 02:31N 53°31' E 009°57'0 0.0
2016-Aug-22 01:31N 53°31' E 009°57'0 0.0
2016-Aug-22 00:31N 53°31' E 009°57'0 0.0
2016-Aug-21 23:31N 53°31' E 009°57'0 0.0
2016-Aug-21 22:31N 53°31' E 009°57'0 0.0
2016-Aug-21 21:31N 53°31' E 009°57'0 0.0
2016-Aug-21 20:31N 53°31' E 009°57'0 0.0
2016-Aug-21 19:31N 53°31' E 009°57'0 0.0
2016-Aug-21 18:31N 53°31' E 009°57'0 0.0
2016-Aug-21 17:31N 53°31' E 009°57'0 0.0
2016-Aug-21 16:31N 53°31' E 009°57'0 0.0
2016-Aug-21 15:31N 53°31' E 009°57'0 0.0
2016-Aug-21 14:31N 53°31' E 009°57'0 0.0
2016-Aug-21 13:31N 53°31' E 009°57'0 0.0
2016-Aug-21 12:31N 53°31' E 009°57'0 0.0
2016-Aug-21 11:31N 53°31' E 009°57'0 0.0
2016-Aug-21 10:31N 53°31' E 009°57'0 0.0
2016-Aug-21 09:31N 53°31' E 009°57'0 0.0
2016-Aug-21 08:31N 53°31' E 009°57'0 0.0
2016-Aug-21 07:31N 53°31' E 009°57'0 0.0
2016-Aug-21 06:31N 53°31' E 009°57'0 0.0
2016-Aug-21 05:31N 53°31' E 009°57'0 0.0
2016-Aug-21 04:31N 53°31' E 009°57'0 0.0
2016-Aug-21 03:31N 53°31' E 009°57'0 0.0
2016-Aug-21 02:31N 53°31' E 009°57'0 0.0
2016-Aug-21 01:31N 53°31' E 009°57'0 0.0
2016-Aug-21 00:32N 53°31' E 009°57'0 0.0
2016-Aug-20 23:32N 53°31' E 009°57'0 0.0
2016-Aug-20 22:31N 53°31' E 009°57'0 0.0
2016-Aug-20 21:31N 53°31' E 009°57'0 0.0
2016-Aug-20 20:31N 53°31' E 009°57'0 0.0
2016-Aug-20 19:31N 53°31' E 009°57'0 0.0
2016-Aug-20 18:31N 53°31' E 009°57'0 0.0
2016-Aug-20 17:31N 53°31' E 009°57'0 0.0
2016-Aug-20 16:31N 53°31' E 009°57'0 0.0
2016-Aug-20 15:31N 53°31' E 009°57'0 0.0
2016-Aug-20 14:32N 53°31' E 009°57'0 0.0
2016-Aug-20 13:31N 53°31' E 009°57'0 0.0
2016-Aug-20 12:31N 53°31' E 009°57'0 0.0
2016-Aug-20 11:32N 53°31' E 009°57'0 0.0
2016-Aug-20 10:31N 53°31' E 009°57'0 0.0
2016-Aug-20 09:31N 53°31' E 009°57'0 0.0
2016-Aug-20 08:31N 53°31' E 009°57'0 0.0
2016-Aug-20 07:31N 53°31' E 009°57'0 0.0
2016-Aug-20 06:31N 53°31' E 009°57'0 0.0
2016-Aug-20 05:31N 53°31' E 009°57'0 0.0
2016-Aug-20 04:31N 53°31' E 009°57'0 0.0
2016-Aug-20 03:31N 53°31' E 009°57'0 0.0
2016-Aug-20 02:31N 53°31' E 009°57'0 0.0
2016-Aug-20 01:31N 53°31' E 009°57'0 0.0
2016-Aug-20 00:31N 53°31' E 009°57'0 0.0
2016-Aug-19 23:31N 53°31' E 009°57'0 0.0
2016-Aug-19 22:31N 53°31' E 009°57'0 0.0
2016-Aug-19 21:31N 53°31' E 009°57'0 0.0
2016-Aug-19 20:31N 53°31' E 009°57'0 0.0
2016-Aug-19 19:29N 53°31' E 009°57'0 0.0
2016-Aug-19 18:31N 53°31' E 009°57'0 0.0
2016-Aug-19 17:31N 53°31' E 009°57'0 0.0
2016-Aug-19 16:31N 53°31' E 009°57'0 0.0
2016-Aug-19 15:34N 53°31' E 009°57'0 0.0
2016-Aug-19 14:34N 53°31' E 009°57'0 0.0
2016-Aug-19 13:33N 53°31' E 009°57'0 0.1
2016-Aug-19 12:33N 53°31' E 009°56'5 4.8
2016-Aug-19 11:34N 53°33' E 009°49'1211.8
2016-Aug-19 10:34N 53°38' E 009°31'1111.1
2016-Aug-19 09:34N 53°48' E 009°22'10 9.6
2016-Aug-19 08:33N 53°53' E 009°08'9 9.3
2016-Aug-19 07:33N 53°50' E 008°53'8 8.2
2016-Aug-19 06:33N 53°55' E 008°41'9 9.2
2016-Aug-19 05:34N 53°59' E 008°27'1010.1
2016-Aug-19 04:33N 53°60' E 008°10'1110.7
2016-Aug-19 03:33N 53°59' E 007°52'1110.5
2016-Aug-19 02:33N 53°55' E 007°35'1111.3
2016-Aug-19 01:33N 53°53' E 007°16'1111.4
2016-Aug-19 00:34N 53°51' E 006°57'1211.7
2016-Aug-18 23:34N 53°48' E 006°38'1212.1
2016-Aug-18 22:33N 53°44' E 006°18'1212.6
2016-Aug-18 21:34N 53°40' E 005°58'1312.8
2016-Aug-18 20:34N 53°36' E 005°38'1312.9
2016-Aug-18 19:33N 53°33' E 005°17'1313.0
2016-Aug-18 18:31N 53°28' E 004°56'1512.7
2016-Aug-18 17:21N 53°18' E 004°37'1113.9
2016-Aug-18 16:31N 53°08' E 004°28'1313.7
2016-Aug-18 15:33N 52°56' E 004°18'1313.1
2016-Aug-18 14:33N 52°45' E 004°06'1312.9
2016-Aug-18 13:33N 52°36' E 003°51'1412.6
2016-Aug-18 12:28N 52°26' E 003°35'1111.9
2016-Aug-18 11:34N 52°19' E 003°23'1111.1
2016-Aug-18 10:32N 52°10' E 003°10'1010.4
2016-Aug-18 09:33N 52°03' E 002°59'1010.0
2016-Aug-18 08:33N 51°55' E 002°49'10 9.8
2016-Aug-18 07:33N 51°48' E 002°38'2010.2
2016-Aug-18 05:33N 51°32' E 002°16'1111.5
2016-Aug-18 04:33N 51°24' E 002°04'1212.0
2016-Aug-18 03:34N 51°15' E 001°51'1312.7
2016-Aug-18 02:33N 51°05' E 001°39'1313.4
2016-Aug-18 01:34N 50°54' E 001°27'1612.7
2016-Aug-18 00:17N 50°39' E 001°15'912.8
2016-Aug-17 23:33N 50°34' E 001°03'1312.6
2016-Aug-17 22:33N 50°28' E 000°45'1313.0
2016-Aug-17 21:34N 50°24' E 000°26'1413.7
2016-Aug-17 20:33N 50°20' E 000°05'1414.3
2016-Aug-17 19:33N 50°16' W 000°16'1414.4
2016-Aug-17 18:33N 50°12' W 000°38'1413.8
2016-Aug-17 17:33N 50°08' W 000°59'1312.6
2016-Aug-17 16:33N 50°05' W 001°18'  

Dump ship's entire track history